This is the latest recevied weather packets stored in our database for station/object YO3FVR-WX. If no packets are shown the sender has not sent any weather packets the latest 1 day(s).
| Time | Temp. | Humidity | Pressure | Rain* | Wind** | Luminosity | Snow |
|---|---|---|---|---|---|---|---|
| 1836274263 | 16.67° C | 72% | 1022.1 hPa | 0 mm | 0 m/s | - | - |
| 1778018740 | 18.89° C | 50% | 1009.3 hPa | 0 mm | 0 m/s | - | - |
| 1778017539 | 19.44° C | 49% | 1009.2 hPa | 0 mm | 0 m/s | - | - |
| 1778016311 | 18.89° C | 51% | 1009.2 hPa | 0 mm | 0 m/s | - | - |
| 1778015110 | 18.33° C | 52% | 1009.3 hPa | 0 mm | 0 m/s | - | - |
| 1778013880 | 18.89° C | 52% | 1009.4 hPa | 0 mm | 0 m/s | - | - |
| 1778012680 | 18.89° C | 52% | 1009.4 hPa | 0 mm | 0 m/s | - | - |
| 1778011450 | 18.89° C | 53% | 1009.2 hPa | 0 mm | 0 m/s | - | - |
| 1778010220 | 18.33° C | 56% | 1009.2 hPa | 0 mm | 0 m/s | - | - |
| 1778008990 | 18.33° C | 57% | 1009.1 hPa | 0 mm | 0 m/s | - | - |
| 1778007761 | 18.33° C | 57% | 1009 hPa | 0 mm | 0 m/s | - | - |
| 1778006530 | 18.33° C | 55% | 1009.1 hPa | 0 mm | 0 m/s | - | - |
| 1778005300 | 18.89° C | 53% | 1008.8 hPa | 0 mm | 0 m/s | - | - |
| 1778004071 | 19.44° C | 51% | 1008.7 hPa | 0 mm | 0 m/s | - | - |
| 1778002841 | 20° C | 50% | 1008.7 hPa | 0 mm | 0 m/s | - | - |
| 1778001640 | 20.56° C | 49% | 1008.7 hPa | 0 mm | 0 m/s | - | - |
| 1778000412 | 21.67° C | 48% | 1008.6 hPa | 0 mm | 0 m/s | - | - |
| 1777999209 | 22.22° C | 47% | 1008.7 hPa | 0 mm | 0 m/s | - | - |
| 1777997981 | 22.78° C | 44% | 1008.6 hPa | 0 mm | 0 m/s | - | - |
| 1777996752 | 24.44° C | 44% | 1008.5 hPa | 0 mm | 0 m/s | - | - |
| 1777995550 | 24.44° C | 44% | 1008.9 hPa | 0 mm | 0 m/s | - | - |
| 1777994324 | 24.44° C | 42% | 1009.2 hPa | 0 mm | 0 m/s | - | - |
| 1777993094 | 25° C | 42% | 1009.2 hPa | 0 mm | 0 m/s | - | - |
| 1777991891 | 25° C | 42% | 1009.1 hPa | 0 mm | 0 m/s | - | - |
| 1777990663 | 25° C | 42% | 1009.1 hPa | 0 mm | 0 m/s | - | - |
* Rain latest hour (hover to see other rain measurements)
** Current wind speed in m/s (hover to see current wind gust speed)